sensor_id;sensor_type;location;lat;lon;timestamp;P1;durP1;ratioP1;P2;durP2;ratioP2
22812;SDS011;11573;51.334;3.244;2022-10-30T00:00:03;24.73;;;13.65;;
22812;SDS011;11573;51.334;3.244;2022-10-30T00:02:37;26.38;;;14.85;;
22812;SDS011;11573;51.334;3.244;2022-10-30T00:05:04;26.15;;;14.88;;
22812;SDS011;11573;51.334;3.244;2022-10-30T00:07:32;26.92;;;13.82;;
22812;SDS011;11573;51.334;3.244;2022-10-30T00:09:59;26.35;;;14.55;;
22812;SDS011;11573;51.334;3.244;2022-10-30T00:12:26;23.60;;;12.73;;
22812;SDS011;11573;51.334;3.244;2022-10-30T00:14:53;24.65;;;14.40;;
22812;SDS011;11573;51.334;3.244;2022-10-30T00:17:20;25.80;;;13.98;;
22812;SDS011;11573;51.334;3.244;2022-10-30T00:19:47;26.45;;;14.35;;
22812;SDS011;11573;51.334;3.244;2022-10-30T00:22:14;27.35;;;15.82;;
22812;SDS011;11573;51.334;3.244;2022-10-30T00:24:41;28.02;;;14.85;;
22812;SDS011;11573;51.334;3.244;2022-10-30T00:27:08;27.80;;;15.00;;
22812;SDS011;11573;51.334;3.244;2022-10-30T00:29:35;26.42;;;15.52;;
22812;SDS011;11573;51.334;3.244;2022-10-30T00:32:02;29.52;;;15.63;;
22812;SDS011;11573;51.334;3.244;2022-10-30T00:34:30;31.23;;;15.18;;
22812;SDS011;11573;51.334;3.244;2022-10-30T00:36:57;21.35;;;15.18;;
22812;SDS011;11573;51.334;3.244;2022-10-30T00:39:24;29.13;;;16.33;;
22812;SDS011;11573;51.334;3.244;2022-10-30T00:41:51;28.52;;;15.20;;
22812;SDS011;11573;51.334;3.244;2022-10-30T00:47:16;24.67;;;15.40;;
22812;SDS011;11573;51.334;3.244;2022-10-30T00:50:01;30.10;;;15.32;;
22812;SDS011;11573;51.334;3.244;2022-10-30T00:52:33;28.23;;;16.45;;
22812;SDS011;11573;51.334;3.244;2022-10-30T00:55:10;34.88;;;15.63;;
22812;SDS011;11573;51.334;3.244;2022-10-30T00:57:42;28.42;;;15.25;;
22812;SDS011;11573;51.334;3.244;2022-10-30T01:00:10;24.77;;;15.95;;
22812;SDS011;11573;51.334;3.244;2022-10-30T01:02:38;28.20;;;16.80;;
22812;SDS011;11573;51.334;3.244;2022-10-30T01:05:07;30.20;;;16.13;;
22812;SDS011;11573;51.334;3.244;2022-10-30T01:07:41;25.40;;;15.70;;
22812;SDS011;11573;51.334;3.244;2022-10-30T01:10:08;33.08;;;15.98;;
22812;SDS011;11573;51.334;3.244;2022-10-30T01:12:36;28.65;;;16.80;;
22812;SDS011;11573;51.334;3.244;2022-10-30T01:15:04;25.70;;;16.23;;
22812;SDS011;11573;51.334;3.244;2022-10-30T01:29:37;30.40;;;16.02;;
22812;SDS011;11573;51.334;3.244;2022-10-30T01:31:51;26.85;;;15.55;;
22812;SDS011;11573;51.334;3.244;2022-10-30T01:34:46;34.33;;;15.90;;
22812;SDS011;11573;51.334;3.244;2022-10-30T01:37:32;29.65;;;15.20;;
22812;SDS011;11573;51.334;3.244;2022-10-30T01:40:05;37.67;;;17.23;;
22812;SDS011;11573;51.334;3.244;2022-10-30T01:42:45;32.25;;;16.17;;
22812;SDS011;11573;51.334;3.244;2022-10-30T01:46:06;28.50;;;15.40;;
22812;SDS011;11573;51.334;3.244;2022-10-30T01:53:54;27.98;;;14.10;;
22812;SDS011;11573;51.334;3.244;2022-10-30T01:59:47;29.23;;;15.18;;
22812;SDS011;11573;51.334;3.244;2022-10-30T02:02:19;22.40;;;13.63;;
22812;SDS011;11573;51.334;3.244;2022-10-30T02:04:48;30.13;;;13.55;;
22812;SDS011;11573;51.334;3.244;2022-10-30T02:07:15;28.20;;;15.48;;
22812;SDS011;11573;51.334;3.244;2022-10-30T02:09:47;26.73;;;13.63;;
22812;SDS011;11573;51.334;3.244;2022-10-30T02:12:17;24.58;;;14.15;;
22812;SDS011;11573;51.334;3.244;2022-10-30T02:14:46;21.45;;;14.00;;
22812;SDS011;11573;51.334;3.244;2022-10-30T02:17:17;22.83;;;13.80;;
22812;SDS011;11573;51.334;3.244;2022-10-30T02:19:48;23.10;;;14.40;;
22812;SDS011;11573;51.334;3.244;2022-10-30T02:22:15;25.90;;;14.43;;
22812;SDS011;11573;51.334;3.244;2022-10-30T02:24:43;28.90;;;13.45;;
22812;SDS011;11573;51.334;3.244;2022-10-30T02:27:10;31.00;;;14.82;;
22812;SDS011;11573;51.334;3.244;2022-10-30T02:29:39;27.25;;;14.48;;
22812;SDS011;11573;51.334;3.244;2022-10-30T02:32:06;22.90;;;14.35;;
22812;SDS011;11573;51.334;3.244;2022-10-30T02:34:33;29.23;;;14.68;;
22812;SDS011;11573;51.334;3.244;2022-10-30T02:37:00;31.55;;;15.68;;
22812;SDS011;11573;51.334;3.244;2022-10-30T02:39:27;29.73;;;15.43;;
22812;SDS011;11573;51.334;3.244;2022-10-30T02:41:54;26.48;;;15.98;;
22812;SDS011;11573;51.334;3.244;2022-10-30T02:44:21;31.25;;;15.57;;
22812;SDS011;11573;51.334;3.244;2022-10-30T02:46:48;32.10;;;16.83;;
22812;SDS011;11573;51.334;3.244;2022-10-30T02:49:15;31.05;;;16.25;;
22812;SDS011;11573;51.334;3.244;2022-10-30T02:51:43;30.73;;;16.88;;
22812;SDS011;11573;51.334;3.244;2022-10-30T02:54:11;30.25;;;18.17;;
22812;SDS011;11573;51.334;3.244;2022-10-30T02:56:41;31.40;;;16.60;;
22812;SDS011;11573;51.334;3.244;2022-10-30T02:59:08;29.60;;;16.90;;
22812;SDS011;11573;51.334;3.244;2022-10-30T03:01:36;27.90;;;17.00;;
22812;SDS011;11573;51.334;3.244;2022-10-30T03:04:03;28.60;;;16.35;;
22812;SDS011;11573;51.334;3.244;2022-10-30T03:06:30;28.60;;;15.90;;
22812;SDS011;11573;51.334;3.244;2022-10-30T03:08:58;28.50;;;16.20;;
22812;SDS011;11573;51.334;3.244;2022-10-30T03:11:25;27.17;;;15.30;;
22812;SDS011;11573;51.334;3.244;2022-10-30T03:13:54;29.60;;;15.70;;
22812;SDS011;11573;51.334;3.244;2022-10-30T03:16:22;30.30;;;16.35;;
22812;SDS011;11573;51.334;3.244;2022-10-30T03:18:53;26.13;;;15.95;;
22812;SDS011;11573;51.334;3.244;2022-10-30T03:21:22;31.95;;;16.02;;
22812;SDS011;11573;51.334;3.244;2022-10-30T03:23:50;26.83;;;16.38;;
22812;SDS011;11573;51.334;3.244;2022-10-30T03:26:17;28.42;;;16.58;;
22812;SDS011;11573;51.334;3.244;2022-10-30T03:28:49;23.77;;;15.23;;
22812;SDS011;11573;51.334;3.244;2022-10-30T03:31:16;23.65;;;15.30;;
22812;SDS011;11573;51.334;3.244;2022-10-30T03:33:46;37.28;;;16.20;;
22812;SDS011;11573;51.334;3.244;2022-10-30T03:36:13;29.13;;;16.52;;
22812;SDS011;11573;51.334;3.244;2022-10-30T03:38:41;26.88;;;17.23;;
22812;SDS011;11573;51.334;3.244;2022-10-30T03:41:14;29.08;;;16.35;;
22812;SDS011;11573;51.334;3.244;2022-10-30T03:43:42;35.10;;;18.10;;
22812;SDS011;11573;51.334;3.244;2022-10-30T03:46:09;25.02;;;15.52;;
22812;SDS011;11573;51.334;3.244;2022-10-30T03:48:37;31.15;;;16.23;;
22812;SDS011;11573;51.334;3.244;2022-10-30T03:51:04;32.35;;;16.50;;
22812;SDS011;11573;51.334;3.244;2022-10-30T03:53:33;30.67;;;16.20;;
22812;SDS011;11573;51.334;3.244;2022-10-30T03:56:01;27.95;;;16.23;;
22812;SDS011;11573;51.334;3.244;2022-10-30T03:58:38;28.90;;;14.73;;
22812;SDS011;11573;51.334;3.244;2022-10-30T04:01:09;27.65;;;15.68;;
22812;SDS011;11573;51.334;3.244;2022-10-30T04:03:39;30.75;;;17.02;;
22812;SDS011;11573;51.334;3.244;2022-10-30T04:06:07;28.25;;;16.65;;
22812;SDS011;11573;51.334;3.244;2022-10-30T04:08:34;25.35;;;16.77;;
22812;SDS011;11573;51.334;3.244;2022-10-30T04:11:02;27.63;;;15.85;;
22812;SDS011;11573;51.334;3.244;2022-10-30T04:13:29;29.30;;;16.20;;
22812;SDS011;11573;51.334;3.244;2022-10-30T04:15:56;31.55;;;16.88;;
22812;SDS011;11573;51.334;3.244;2022-10-30T04:18:24;27.73;;;16.95;;
22812;SDS011;11573;51.334;3.244;2022-10-30T04:20:52;31.58;;;17.33;;
22812;SDS011;11573;51.334;3.244;2022-10-30T04:23:20;30.80;;;16.70;;
22812;SDS011;11573;51.334;3.244;2022-10-30T04:25:47;29.65;;;17.50;;
22812;SDS011;11573;51.334;3.244;2022-10-30T04:28:14;28.70;;;16.15;;
22812;SDS011;11573;51.334;3.244;2022-10-30T04:30:42;26.98;;;16.92;;
22812;SDS011;11573;51.334;3.244;2022-10-30T04:33:12;30.05;;;18.23;;
22812;SDS011;11573;51.334;3.244;2022-10-30T04:35:41;36.53;;;19.25;;
22812;SDS011;11573;51.334;3.244;2022-10-30T04:38:14;33.60;;;16.88;;
22812;SDS011;11573;51.334;3.244;2022-10-30T04:40:42;33.95;;;18.42;;
22812;SDS011;11573;51.334;3.244;2022-10-30T04:43:11;34.15;;;18.23;;
22812;SDS011;11573;51.334;3.244;2022-10-30T04:45:39;32.10;;;17.00;;
22812;SDS011;11573;51.334;3.244;2022-10-30T04:48:08;34.42;;;17.33;;
22812;SDS011;11573;51.334;3.244;2022-10-30T04:50:41;30.88;;;17.75;;
22812;SDS011;11573;51.334;3.244;2022-10-30T04:53:13;37.22;;;18.25;;
22812;SDS011;11573;51.334;3.244;2022-10-30T04:55:44;33.95;;;17.42;;
22812;SDS011;11573;51.334;3.244;2022-10-30T04:58:12;34.58;;;18.75;;
22812;SDS011;11573;51.334;3.244;2022-10-30T05:00:41;32.65;;;19.33;;
22812;SDS011;11573;51.334;3.244;2022-10-30T05:03:17;36.85;;;18.48;;
22812;SDS011;11573;51.334;3.244;2022-10-30T05:08:49;37.58;;;18.73;;
22812;SDS011;11573;51.334;3.244;2022-10-30T05:11:35;31.63;;;19.27;;
22812;SDS011;11573;51.334;3.244;2022-10-30T05:14:02;31.90;;;19.45;;
22812;SDS011;11573;51.334;3.244;2022-10-30T05:16:29;36.80;;;19.40;;
22812;SDS011;11573;51.334;3.244;2022-10-30T05:18:58;33.92;;;19.02;;
22812;SDS011;11573;51.334;3.244;2022-10-30T05:21:24;35.65;;;19.55;;
22812;SDS011;11573;51.334;3.244;2022-10-30T05:23:52;31.83;;;20.58;;
22812;SDS011;11573;51.334;3.244;2022-10-30T05:26:19;36.35;;;20.38;;
22812;SDS011;11573;51.334;3.244;2022-10-30T05:28:46;34.90;;;19.05;;
22812;SDS011;11573;51.334;3.244;2022-10-30T05:31:13;29.45;;;19.10;;
22812;SDS011;11573;51.334;3.244;2022-10-30T05:34:09;26.58;;;18.20;;
22812;SDS011;11573;51.334;3.244;2022-10-30T05:36:38;35.60;;;19.25;;
22812;SDS011;11573;51.334;3.244;2022-10-30T05:39:05;34.47;;;19.63;;
22812;SDS011;11573;51.334;3.244;2022-10-30T05:41:39;30.20;;;18.98;;
22812;SDS011;11573;51.334;3.244;2022-10-30T05:44:08;32.50;;;18.73;;
22812;SDS011;11573;51.334;3.244;2022-10-30T05:46:37;29.90;;;18.95;;
22812;SDS011;11573;51.334;3.244;2022-10-30T05:49:13;31.02;;;19.45;;
22812;SDS011;11573;51.334;3.244;2022-10-30T05:51:40;32.42;;;19.83;;
22812;SDS011;11573;51.334;3.244;2022-10-30T05:54:09;34.47;;;20.25;;
22812;SDS011;11573;51.334;3.244;2022-10-30T05:56:44;29.92;;;17.83;;
22812;SDS011;11573;51.334;3.244;2022-10-30T05:59:12;34.75;;;18.52;;
22812;SDS011;11573;51.334;3.244;2022-10-30T06:01:39;30.88;;;20.05;;
22812;SDS011;11573;51.334;3.244;2022-10-30T06:04:10;34.67;;;19.73;;
22812;SDS011;11573;51.334;3.244;2022-10-30T06:06:37;35.72;;;21.10;;
22812;SDS011;11573;51.334;3.244;2022-10-30T06:09:04;34.47;;;21.25;;
22812;SDS011;11573;51.334;3.244;2022-10-30T06:11:51;35.15;;;20.63;;
22812;SDS011;11573;51.334;3.244;2022-10-30T06:14:25;34.88;;;20.33;;
22812;SDS011;11573;51.334;3.244;2022-10-30T06:16:53;35.38;;;19.80;;
22812;SDS011;11573;51.334;3.244;2022-10-30T06:19:48;31.88;;;20.40;;
22812;SDS011;11573;51.334;3.244;2022-10-30T06:22:31;34.85;;;19.80;;
22812;SDS011;11573;51.334;3.244;2022-10-30T06:25:07;32.72;;;20.27;;
22812;SDS011;11573;51.334;3.244;2022-10-30T06:27:51;33.05;;;20.02;;
22812;SDS011;11573;51.334;3.244;2022-10-30T06:30:18;37.00;;;20.20;;
22812;SDS011;11573;51.334;3.244;2022-10-30T06:32:45;33.05;;;19.20;;
22812;SDS011;11573;51.334;3.244;2022-10-30T06:35:13;31.05;;;19.63;;
22812;SDS011;11573;51.334;3.244;2022-10-30T06:37:47;37.10;;;20.52;;
22812;SDS011;11573;51.334;3.244;2022-10-30T06:40:14;31.58;;;19.27;;
22812;SDS011;11573;51.334;3.244;2022-10-30T06:43:15;27.13;;;18.30;;
22812;SDS011;11573;51.334;3.244;2022-10-30T06:45:48;34.70;;;19.35;;
22812;SDS011;11573;51.334;3.244;2022-10-30T06:48:16;29.73;;;18.88;;
22812;SDS011;11573;51.334;3.244;2022-10-30T06:50:52;33.13;;;19.38;;
22812;SDS011;11573;51.334;3.244;2022-10-30T06:53:21;33.97;;;20.00;;
22812;SDS011;11573;51.334;3.244;2022-10-30T06:55:59;33.55;;;19.60;;
22812;SDS011;11573;51.334;3.244;2022-10-30T06:58:27;30.75;;;19.55;;
22812;SDS011;11573;51.334;3.244;2022-10-30T07:01:05;32.28;;;18.75;;
22812;SDS011;11573;51.334;3.244;2022-10-30T07:03:50;36.13;;;19.27;;
22812;SDS011;11573;51.334;3.244;2022-10-30T07:06:17;31.50;;;19.15;;
22812;SDS011;11573;51.334;3.244;2022-10-30T07:08:45;31.40;;;17.92;;
22812;SDS011;11573;51.334;3.244;2022-10-30T07:11:13;32.40;;;18.52;;
22812;SDS011;11573;51.334;3.244;2022-10-30T07:13:40;38.20;;;19.30;;
22812;SDS011;11573;51.334;3.244;2022-10-30T07:16:26;36.58;;;18.55;;
22812;SDS011;11573;51.334;3.244;2022-10-30T07:18:53;28.27;;;17.92;;
22812;SDS011;11573;51.334;3.244;2022-10-30T07:21:25;30.75;;;16.88;;
22812;SDS011;11573;51.334;3.244;2022-10-30T07:23:52;28.88;;;17.30;;
22812;SDS011;11573;51.334;3.244;2022-10-30T07:26:32;29.60;;;16.70;;
22812;SDS011;11573;51.334;3.244;2022-10-30T07:29:23;32.00;;;16.52;;
22812;SDS011;11573;51.334;3.244;2022-10-30T07:32:10;29.48;;;17.20;;
22812;SDS011;11573;51.334;3.244;2022-10-30T07:34:59;36.13;;;16.90;;
22812;SDS011;11573;51.334;3.244;2022-10-30T07:37:33;30.25;;;16.60;;
22812;SDS011;11573;51.334;3.244;2022-10-30T07:40:10;32.40;;;15.73;;
22812;SDS011;11573;51.334;3.244;2022-10-30T07:42:57;28.15;;;16.60;;
22812;SDS011;11573;51.334;3.244;2022-10-30T07:45:29;32.13;;;16.90;;
22812;SDS011;11573;51.334;3.244;2022-10-30T07:48:15;27.48;;;16.63;;
22812;SDS011;11573;51.334;3.244;2022-10-30T07:50:45;38.28;;;18.25;;
22812;SDS011;11573;51.334;3.244;2022-10-30T07:53:13;29.90;;;16.95;;
22812;SDS011;11573;51.334;3.244;2022-10-30T07:55:43;34.70;;;16.88;;
22812;SDS011;11573;51.334;3.244;2022-10-30T07:58:13;24.60;;;16.38;;
22812;SDS011;11573;51.334;3.244;2022-10-30T08:00:58;27.73;;;15.82;;
22812;SDS011;11573;51.334;3.244;2022-10-30T08:03:30;30.42;;;16.20;;
22812;SDS011;11573;51.334;3.244;2022-10-30T08:06:04;31.65;;;16.58;;
22812;SDS011;11573;51.334;3.244;2022-10-30T08:08:36;25.80;;;15.40;;
22812;SDS011;11573;51.334;3.244;2022-10-30T08:11:23;26.08;;;15.13;;
22812;SDS011;11573;51.334;3.244;2022-10-30T08:13:52;23.33;;;13.70;;
22812;SDS011;11573;51.334;3.244;2022-10-30T08:16:18;27.70;;;14.15;;
22812;SDS011;11573;51.334;3.244;2022-10-30T08:18:45;29.00;;;14.40;;
22812;SDS011;11573;51.334;3.244;2022-10-30T08:21:12;24.42;;;13.85;;
22812;SDS011;11573;51.334;3.244;2022-10-30T08:23:51;28.85;;;14.25;;
22812;SDS011;11573;51.334;3.244;2022-10-30T08:26:19;24.15;;;12.82;;
22812;SDS011;11573;51.334;3.244;2022-10-30T08:28:46;22.98;;;13.10;;
22812;SDS011;11573;51.334;3.244;2022-10-30T08:31:15;24.60;;;13.52;;
22812;SDS011;11573;51.334;3.244;2022-10-30T08:34:00;23.17;;;12.83;;
22812;SDS011;11573;51.334;3.244;2022-10-30T08:36:34;25.33;;;13.10;;
22812;SDS011;11573;51.334;3.244;2022-10-30T08:39:01;22.50;;;12.25;;
22812;SDS011;11573;51.334;3.244;2022-10-30T08:41:52;20.63;;;12.63;;
22812;SDS011;11573;51.334;3.244;2022-10-30T08:44:20;21.98;;;11.73;;
22812;SDS011;11573;51.334;3.244;2022-10-30T08:47:07;23.58;;;12.73;;
22812;SDS011;11573;51.334;3.244;2022-10-30T08:49:35;20.15;;;10.55;;
22812;SDS011;11573;51.334;3.244;2022-10-30T08:52:02;26.23;;;12.73;;
22812;SDS011;11573;51.334;3.244;2022-10-30T08:54:34;22.00;;;11.88;;
22812;SDS011;11573;51.334;3.244;2022-10-30T08:57:01;23.83;;;11.02;;
22812;SDS011;11573;51.334;3.244;2022-10-30T08:59:28;23.48;;;10.85;;
22812;SDS011;11573;51.334;3.244;2022-10-30T09:01:57;22.60;;;10.93;;
22812;SDS011;11573;51.334;3.244;2022-10-30T09:04:42;18.17;;;10.85;;
22812;SDS011;11573;51.334;3.244;2022-10-30T09:07:28;20.58;;;9.98;;
22812;SDS011;11573;51.334;3.244;2022-10-30T09:10:17;15.18;;;9.38;;
22812;SDS011;11573;51.334;3.244;2022-10-30T09:12:44;19.30;;;9.80;;
22812;SDS011;11573;51.334;3.244;2022-10-30T09:15:12;22.10;;;9.88;;
22812;SDS011;11573;51.334;3.244;2022-10-30T09:17:57;21.20;;;9.82;;
22812;SDS011;11573;51.334;3.244;2022-10-30T09:20:29;17.05;;;10.05;;
22812;SDS011;11573;51.334;3.244;2022-10-30T09:22:56;19.95;;;9.73;;
22812;SDS011;11573;51.334;3.244;2022-10-30T09:25:25;17.40;;;10.10;;
22812;SDS011;11573;51.334;3.244;2022-10-30T09:28:05;19.40;;;10.07;;
22812;SDS011;11573;51.334;3.244;2022-10-30T09:30:48;20.80;;;10.35;;
22812;SDS011;11573;51.334;3.244;2022-10-30T09:33:20;22.05;;;10.25;;
22812;SDS011;11573;51.334;3.244;2022-10-30T09:36:19;17.77;;;9.25;;
22812;SDS011;11573;51.334;3.244;2022-10-30T09:38:48;19.02;;;10.20;;
22812;SDS011;11573;51.334;3.244;2022-10-30T09:41:24;20.17;;;9.90;;
22812;SDS011;11573;51.334;3.244;2022-10-30T09:57:50;15.80;;;9.23;;
22812;SDS011;11573;51.334;3.244;2022-10-30T10:00:33;21.60;;;8.80;;
22812;SDS011;11573;51.334;3.244;2022-10-30T10:03:21;18.38;;;9.32;;
22812;SDS011;11573;51.334;3.244;2022-10-30T10:06:25;18.05;;;8.82;;
22812;SDS011;11573;51.334;3.244;2022-10-30T10:09:21;23.10;;;9.45;;
22812;SDS011;11573;51.334;3.244;2022-10-30T10:12:14;17.30;;;9.52;;
22812;SDS011;11573;51.334;3.244;2022-10-30T10:15:01;15.55;;;8.77;;
22812;SDS011;11573;51.334;3.244;2022-10-30T10:17:36;14.48;;;8.00;;
22812;SDS011;11573;51.334;3.244;2022-10-30T10:20:12;15.88;;;9.55;;
22812;SDS011;11573;51.334;3.244;2022-10-30T10:22:55;16.77;;;8.90;;
22812;SDS011;11573;51.334;3.244;2022-10-30T10:25:27;14.13;;;7.55;;
22812;SDS011;11573;51.334;3.244;2022-10-30T10:36:32;17.42;;;8.23;;
22812;SDS011;11573;51.334;3.244;2022-10-30T10:39:20;12.95;;;8.07;;
22812;SDS011;11573;51.334;3.244;2022-10-30T10:42:03;16.73;;;8.48;;
22812;SDS011;11573;51.334;3.244;2022-10-30T10:45:31;11.45;;;7.45;;
22812;SDS011;11573;51.334;3.244;2022-10-30T10:50:45;11.02;;;6.43;;
22812;SDS011;11573;51.334;3.244;2022-10-30T10:53:34;15.60;;;6.70;;
22812;SDS011;11573;51.334;3.244;2022-10-30T10:56:12;10.90;;;6.53;;
22812;SDS011;11573;51.334;3.244;2022-10-30T10:58:50;11.73;;;5.80;;
22812;SDS011;11573;51.334;3.244;2022-10-30T11:01:28;10.13;;;5.55;;
22812;SDS011;11573;51.334;3.244;2022-10-30T11:04:17;17.02;;;5.85;;
22812;SDS011;11573;51.334;3.244;2022-10-30T11:06:48;12.25;;;5.57;;
22812;SDS011;11573;51.334;3.244;2022-10-30T11:09:18;11.30;;;5.40;;
22812;SDS011;11573;51.334;3.244;2022-10-30T11:11:46;9.68;;;5.43;;
22812;SDS011;11573;51.334;3.244;2022-10-30T11:14:16;11.57;;;5.93;;
22812;SDS011;11573;51.334;3.244;2022-10-30T11:19:37;13.70;;;5.00;;
22812;SDS011;11573;51.334;3.244;2022-10-30T11:22:07;10.70;;;5.13;;
22812;SDS011;11573;51.334;3.244;2022-10-30T11:24:55;9.65;;;5.05;;
22812;SDS011;11573;51.334;3.244;2022-10-30T11:27:45;11.18;;;4.35;;
22812;SDS011;11573;51.334;3.244;2022-10-30T11:30:18;7.70;;;4.80;;
22812;SDS011;11573;51.334;3.244;2022-10-30T11:32:46;12.30;;;4.63;;
22812;SDS011;11573;51.334;3.244;2022-10-30T11:35:17;10.30;;;4.32;;
22812;SDS011;11573;51.334;3.244;2022-10-30T11:37:46;9.90;;;3.72;;
22812;SDS011;11573;51.334;3.244;2022-10-30T11:40:16;11.35;;;3.50;;
22812;SDS011;11573;51.334;3.244;2022-10-30T11:42:52;6.72;;;3.22;;
22812;SDS011;11573;51.334;3.244;2022-10-30T11:45:30;7.93;;;2.83;;
22812;SDS011;11573;51.334;3.244;2022-10-30T11:48:09;7.35;;;3.03;;
22812;SDS011;11573;51.334;3.244;2022-10-30T11:50:47;8.85;;;3.38;;
22812;SDS011;11573;51.334;3.244;2022-10-30T11:53:17;13.90;;;3.83;;
22812;SDS011;11573;51.334;3.244;2022-10-30T11:55:48;8.50;;;3.40;;
22812;SDS011;11573;51.334;3.244;2022-10-30T11:58:21;11.18;;;4.70;;
22812;SDS011;11573;51.334;3.244;2022-10-30T12:01:00;10.57;;;4.63;;
22812;SDS011;11573;51.334;3.244;2022-10-30T12:03:34;11.48;;;5.05;;
22812;SDS011;11573;51.334;3.244;2022-10-30T12:11:32;9.95;;;4.38;;
22812;SDS011;11573;51.334;3.244;2022-10-30T12:14:00;13.75;;;5.47;;
22812;SDS011;11573;51.334;3.244;2022-10-30T12:16:27;9.35;;;5.25;;
22812;SDS011;11573;51.334;3.244;2022-10-30T12:21:25;12.77;;;4.90;;
22812;SDS011;11573;51.334;3.244;2022-10-30T12:23:54;12.20;;;5.05;;
22812;SDS011;11573;51.334;3.244;2022-10-30T12:26:23;9.98;;;4.22;;
22812;SDS011;11573;51.334;3.244;2022-10-30T12:28:56;12.85;;;4.38;;
22812;SDS011;11573;51.334;3.244;2022-10-30T12:31:31;10.95;;;4.22;;
22812;SDS011;11573;51.334;3.244;2022-10-30T12:34:48;9.55;;;4.00;;
22812;SDS011;11573;51.334;3.244;2022-10-30T12:42:45;11.50;;;3.80;;
22812;SDS011;11573;51.334;3.244;2022-10-30T12:45:20;8.93;;;3.55;;
22812;SDS011;11573;51.334;3.244;2022-10-30T12:48:04;14.30;;;3.45;;
22812;SDS011;11573;51.334;3.244;2022-10-30T12:50:41;11.98;;;3.15;;
22812;SDS011;11573;51.334;3.244;2022-10-30T12:53:27;12.55;;;2.80;;
22812;SDS011;11573;51.334;3.244;2022-10-30T12:56:05;14.35;;;3.08;;
22812;SDS011;11573;51.334;3.244;2022-10-30T12:58:56;13.20;;;2.40;;
22812;SDS011;11573;51.334;3.244;2022-10-30T13:01:40;12.77;;;2.72;;
22812;SDS011;11573;51.334;3.244;2022-10-30T13:04:16;15.52;;;3.08;;
22812;SDS011;11573;51.334;3.244;2022-10-30T13:09:41;13.27;;;2.40;;
22812;SDS011;11573;51.334;3.244;2022-10-30T13:12:18;12.50;;;2.92;;
22812;SDS011;11573;51.334;3.244;2022-10-30T13:14:53;14.05;;;2.20;;
22812;SDS011;11573;51.334;3.244;2022-10-30T13:17:23;6.10;;;2.03;;
22812;SDS011;11573;51.334;3.244;2022-10-30T13:19:50;9.77;;;2.05;;
22812;SDS011;11573;51.334;3.244;2022-10-30T13:22:19;10.05;;;1.70;;
22812;SDS011;11573;51.334;3.244;2022-10-30T13:24:59;5.78;;;1.40;;
22812;SDS011;11573;51.334;3.244;2022-10-30T13:27:35;7.05;;;1.67;;
22812;SDS011;11573;51.334;3.244;2022-10-30T13:30:19;7.82;;;1.65;;
22812;SDS011;11573;51.334;3.244;2022-10-30T13:38:51;6.15;;;1.30;;
22812;SDS011;11573;51.334;3.244;2022-10-30T13:41:31;4.88;;;1.50;;
22812;SDS011;11573;51.334;3.244;2022-10-30T13:47:33;5.85;;;1.30;;
22812;SDS011;11573;51.334;3.244;2022-10-30T13:52:53;6.20;;;1.58;;
22812;SDS011;11573;51.334;3.244;2022-10-30T13:55:30;6.28;;;1.10;;
22812;SDS011;11573;51.334;3.244;2022-10-30T13:58:04;5.25;;;1.05;;
22812;SDS011;11573;51.334;3.244;2022-10-30T14:00:49;8.20;;;1.20;;
22812;SDS011;11573;51.334;3.244;2022-10-30T14:03:33;7.50;;;1.95;;
22812;SDS011;11573;51.334;3.244;2022-10-30T14:11:37;6.25;;;1.38;;
22812;SDS011;11573;51.334;3.244;2022-10-30T14:14:05;8.27;;;1.52;;
22812;SDS011;11573;51.334;3.244;2022-10-30T14:22:39;4.40;;;1.00;;
22812;SDS011;11573;51.334;3.244;2022-10-30T14:25:12;5.85;;;1.55;;
22812;SDS011;11573;51.334;3.244;2022-10-30T14:27:41;6.47;;;1.80;;
22812;SDS011;11573;51.334;3.244;2022-10-30T14:30:15;4.78;;;1.50;;
22812;SDS011;11573;51.334;3.244;2022-10-30T14:32:49;5.70;;;1.20;;
22812;SDS011;11573;51.334;3.244;2022-10-30T14:35:33;2.92;;;1.13;;
22812;SDS011;11573;51.334;3.244;2022-10-30T14:43:22;3.60;;;1.15;;
22812;SDS011;11573;51.334;3.244;2022-10-30T14:46:00;2.97;;;1.27;;
22812;SDS011;11573;51.334;3.244;2022-10-30T14:48:41;4.45;;;1.70;;
22812;SDS011;11573;51.334;3.244;2022-10-30T14:51:39;4.20;;;1.75;;
22812;SDS011;11573;51.334;3.244;2022-10-30T14:54:21;4.15;;;1.75;;
22812;SDS011;11573;51.334;3.244;2022-10-30T15:06:05;5.97;;;1.70;;
22812;SDS011;11573;51.334;3.244;2022-10-30T15:09:06;7.70;;;1.73;;
22812;SDS011;11573;51.334;3.244;2022-10-30T15:14:46;4.63;;;2.03;;
22812;SDS011;11573;51.334;3.244;2022-10-30T15:17:25;3.45;;;1.55;;
22812;SDS011;11573;51.334;3.244;2022-10-30T15:19:53;5.85;;;2.15;;
22812;SDS011;11573;51.334;3.244;2022-10-30T15:22:21;3.53;;;2.00;;
22812;SDS011;11573;51.334;3.244;2022-10-30T15:24:51;3.75;;;1.45;;
22812;SDS011;11573;51.334;3.244;2022-10-30T15:27:19;4.70;;;1.58;;
22812;SDS011;11573;51.334;3.244;2022-10-30T15:29:52;4.03;;;1.58;;
22812;SDS011;11573;51.334;3.244;2022-10-30T15:32:22;3.83;;;1.50;;
22812;SDS011;11573;51.334;3.244;2022-10-30T15:34:54;4.80;;;1.50;;
22812;SDS011;11573;51.334;3.244;2022-10-30T15:37:21;6.57;;;1.25;;
22812;SDS011;11573;51.334;3.244;2022-10-30T15:39:48;1.50;;;1.15;;
22812;SDS011;11573;51.334;3.244;2022-10-30T15:42:15;3.83;;;1.63;;
22812;SDS011;11573;51.334;3.244;2022-10-30T15:44:43;3.58;;;1.33;;
22812;SDS011;11573;51.334;3.244;2022-10-30T15:47:13;3.85;;;1.58;;
22812;SDS011;11573;51.334;3.244;2022-10-30T15:49:47;4.78;;;1.30;;
22812;SDS011;11573;51.334;3.244;2022-10-30T15:52:26;2.85;;;1.10;;
22812;SDS011;11573;51.334;3.244;2022-10-30T15:55:05;3.05;;;1.17;;
22812;SDS011;11573;51.334;3.244;2022-10-30T15:57:36;2.22;;;1.08;;
22812;SDS011;11573;51.334;3.244;2022-10-30T16:00:36;3.15;;;1.20;;
22812;SDS011;11573;51.334;3.244;2022-10-30T16:03:05;1.77;;;1.10;;
22812;SDS011;11573;51.334;3.244;2022-10-30T16:05:38;3.38;;;1.15;;
22812;SDS011;11573;51.334;3.244;2022-10-30T16:08:12;3.30;;;1.10;;
22812;SDS011;11573;51.334;3.244;2022-10-30T16:10:44;2.88;;;1.30;;
22812;SDS011;11573;51.334;3.244;2022-10-30T16:13:22;1.63;;;1.13;;
22812;SDS011;11573;51.334;3.244;2022-10-30T16:15:54;5.10;;;1.33;;
22812;SDS011;11573;51.334;3.244;2022-10-30T16:18:22;5.65;;;1.35;;
22812;SDS011;11573;51.334;3.244;2022-10-30T16:20:52;3.03;;;1.40;;
22812;SDS011;11573;51.334;3.244;2022-10-30T16:23:21;3.38;;;1.45;;
22812;SDS011;11573;51.334;3.244;2022-10-30T16:25:53;4.90;;;1.25;;
22812;SDS011;11573;51.334;3.244;2022-10-30T16:28:29;5.45;;;1.50;;
22812;SDS011;11573;51.334;3.244;2022-10-30T16:31:02;4.65;;;1.67;;
22812;SDS011;11573;51.334;3.244;2022-10-30T16:33:32;4.50;;;1.88;;
22812;SDS011;11573;51.334;3.244;2022-10-30T16:36:01;3.88;;;2.10;;
22812;SDS011;11573;51.334;3.244;2022-10-30T16:38:31;5.10;;;2.05;;
22812;SDS011;11573;51.334;3.244;2022-10-30T16:41:05;4.75;;;2.03;;
22812;SDS011;11573;51.334;3.244;2022-10-30T16:43:42;2.85;;;1.30;;
22812;SDS011;11573;51.334;3.244;2022-10-30T16:49:01;5.33;;;1.90;;
22812;SDS011;11573;51.334;3.244;2022-10-30T16:51:31;3.28;;;1.88;;
22812;SDS011;11573;51.334;3.244;2022-10-30T16:53:58;3.67;;;1.42;;
22812;SDS011;11573;51.334;3.244;2022-10-30T16:56:26;3.25;;;1.20;;
22812;SDS011;11573;51.334;3.244;2022-10-30T16:59:05;3.90;;;1.40;;
22812;SDS011;11573;51.334;3.244;2022-10-30T17:01:40;4.43;;;1.90;;